Time;durP1;ratioP1;P1;durP2;ratioP2;P2;SDS_P1;SDS_P2;PMS_P1;PMS_P2;Temp;Humidity;BMP_temperature;BMP_pressure;BME280_temperature;BME280_humidity;BME280_pressure;Samples;Min_cycle;Max_cycle;Signal;HPM_P1;HPM_P2
2024/01/12 04:00:58;;;;;;;7.85;6.80;;;21.40;19.80;;;;;;5878121;23;46373;-84
2024/01/12 04:03:24;;;;;;;7.75;6.80;;;21.30;19.90;;;;;;4901845;28;49650;-84
2024/01/12 04:05:50;;;;;;;7.70;6.80;;;21.30;19.90;;;;;;4931486;28;44766;-82
2024/01/12 04:08:16;;;;;;;8.07;6.70;;;21.30;19.90;;;;;;4896773;28;45519;-85
2024/01/12 04:10:42;;;;;;;7.63;6.83;;;21.30;19.90;;;;;;4930743;28;45818;-84
2024/01/12 04:13:08;;;;;;;6.60;5.93;;;21.30;19.90;;;;;;4914006;28;45218;-83
2024/01/12 04:15:33;;;;;;;6.70;5.93;;;21.30;19.90;;;;;;4892886;28;44988;-84
2024/01/12 04:18:00;;;;;;;7.38;6.22;;;21.30;19.90;;;;;;4916000;28;45076;-82
2024/01/12 04:20:26;;;;;;;6.30;5.70;;;21.30;19.90;;;;;;4927054;28;45794;-85
2024/01/12 04:22:51;;;;;;;6.97;6.28;;;21.30;20.00;;;;;;4914924;28;45004;-83
2024/01/12 04:25:17;;;;;;;7.75;6.22;;;21.30;20.00;;;;;;4913985;28;45469;-84
2024/01/12 04:27:43;;;;;;;7.03;5.88;;;21.30;20.00;;;;;;4910764;28;45166;-84
2024/01/12 04:30:10;;;;;;;6.78;5.72;;;21.20;20.00;;;;;;4909395;28;46434;-84
2024/01/12 04:32:36;;;;;;;6.95;5.68;;;21.20;20.10;;;;;;4894729;28;46270;-84
2024/01/12 04:35:05;;;;;;;6.87;5.80;;;21.20;20.00;;;;;;4916207;28;45274;-83
2024/01/12 04:37:31;;;;;;;6.97;5.82;;;21.20;20.10;;;;;;4909812;28;45794;-86
2024/01/12 04:39:57;;;;;;;6.13;5.40;;;21.20;20.00;;;;;;4901830;28;45878;-84
2024/01/12 04:42:23;;;;;;;6.75;5.40;;;21.20;20.50;;;;;;4914371;28;45226;-84
2024/01/12 04:44:49;;;;;;;6.15;5.47;;;21.20;20.10;;;;;;4897969;28;45511;-84
2024/01/12 04:47:15;;;;;;;6.13;5.28;;;21.20;20.10;;;;;;4917246;28;44967;-84
2024/01/12 04:49:41;;;;;;;6.27;5.67;;;21.20;20.10;;;;;;4898484;28;46170;-84
2024/01/12 04:52:07;;;;;;;6.15;5.55;;;21.20;20.10;;;;;;4917886;28;45134;-84
2024/01/12 04:54:33;;;;;;;5.80;5.13;;;21.20;20.20;;;;;;4914375;28;45470;-83
2024/01/12 04:56:58;;;;;;;6.60;5.18;;;21.20;20.10;;;;;;4925725;28;45169;-86
2024/01/12 04:59:24;;;;;;;6.50;5.20;;;21.20;20.20;;;;;;4918533;28;46453;-84
2024/01/12 05:01:50;;;;;;;5.43;4.90;;;21.20;20.20;;;;;;4908772;28;45500;-86
2024/01/12 05:04:16;;;;;;;6.27;5.20;;;21.20;20.20;;;;;;4912315;28;44974;-85
2024/01/12 05:06:41;;;;;;;6.03;5.07;;;21.20;20.20;;;;;;4893100;28;45063;-87
2024/01/12 05:09:07;;;;;;;5.40;4.80;;;21.10;20.20;;;;;;4912465;28;45652;-85
2024/01/12 05:11:33;;;;;;;5.63;5.05;;;21.10;20.20;;;;;;4910275;28;45475;-85
2024/01/12 05:14:00;;;;;;;5.47;4.95;;;21.10;20.20;;;;;;4927415;28;44900;-85
2024/01/12 05:16:25;;;;;;;5.40;4.90;;;21.10;20.20;;;;;;4910355;28;45692;-85
2024/01/12 05:18:51;;;;;;;5.70;5.03;;;21.10;20.20;;;;;;4899201;28;45535;-86
2024/01/12 05:21:18;;;;;;;5.03;4.53;;;21.10;20.30;;;;;;4891659;28;45265;-86
2024/01/12 05:23:44;;;;;;;7.22;4.88;;;21.10;20.30;;;;;;4925367;28;45241;-85
2024/01/12 05:26:11;;;;;;;5.03;4.50;;;21.10;20.30;;;;;;4913682;28;45321;-86
2024/01/12 05:28:37;;;;;;;5.25;4.40;;;21.10;20.30;;;;;;4913473;28;45696;-86
2024/01/12 05:31:03;;;;;;;4.43;4.03;;;21.00;20.30;;;;;;4912734;28;45330;-85
2024/01/12 05:33:31;;;;;;;5.07;4.20;;;21.10;20.40;;;;;;4926584;28;60804;-87
2024/01/12 05:35:57;;;;;;;4.40;4.00;;;21.00;20.30;;;;;;4908221;28;45323;-86
2024/01/12 05:38:22;;;;;;;4.30;3.75;;;21.00;20.40;;;;;;4899663;28;45475;-86
2024/01/12 05:40:48;;;;;;;4.43;4.00;;;21.00;20.40;;;;;;4902351;28;45558;-86
2024/01/12 05:43:14;;;;;;;4.25;3.75;;;21.00;20.40;;;;;;4915747;28;45019;-87
2024/01/12 05:45:44;;;;;;;3.88;3.40;;;21.00;20.40;;;;;;4908784;28;45557;-85
2024/01/12 05:48:11;;;;;;;3.97;3.58;;;21.00;20.40;;;;;;4919109;28;45935;-86
2024/01/12 05:50:36;;;;;;;4.03;3.35;;;20.90;20.40;;;;;;4915532;28;45156;-86
2024/01/12 05:53:03;;;;;;;3.70;3.40;;;21.00;20.50;;;;;;4898493;28;45022;-86
2024/01/12 05:55:29;;;;;;;4.18;3.58;;;21.00;20.50;;;;;;4927756;28;45213;-85
2024/01/12 05:57:55;;;;;;;3.85;3.42;;;20.90;20.40;;;;;;4912110;28;46043;-85
2024/01/12 06:00:21;;;;;;;3.17;2.83;;;20.90;20.40;;;;;;4907134;28;44951;-86
2024/01/12 06:02:47;;;;;;;3.60;3.30;;;20.90;20.50;;;;;;4912603;28;45220;-86
2024/01/12 06:05:13;;;;;;;3.60;3.30;;;20.90;20.50;;;;;;4943235;28;44894;-87
2024/01/12 06:07:39;;;;;;;3.38;3.08;;;20.90;20.50;;;;;;4917124;28;45481;-86
2024/01/12 06:10:06;;;;;;;3.33;3.00;;;20.90;20.50;;;;;;4909368;28;45630;-86
2024/01/12 06:12:39;;;;;;;2.97;2.75;;;20.90;20.50;;;;;;4910802;28;45464;-86
2024/01/12 06:15:07;;;;;;;3.10;2.78;;;20.90;20.50;;;;;;4929833;28;45362;-87
2024/01/12 06:17:32;;;;;;;3.20;2.85;;;20.90;20.60;;;;;;4916600;28;47556;-84
2024/01/12 06:19:58;;;;;;;3.00;2.70;;;20.80;20.60;;;;;;4933104;28;45213;-86
2024/01/12 06:22:24;;;;;;;2.87;2.57;;;20.90;20.70;;;;;;4927018;28;45520;-86
2024/01/12 06:24:49;;;;;;;2.95;2.47;;;20.90;20.60;;;;;;4925122;28;45006;-85
2024/01/12 06:27:15;;;;;;;2.55;2.33;;;20.90;20.70;;;;;;4919068;28;47235;-87
2024/01/12 06:29:41;;;;;;;3.00;2.70;;;20.80;20.60;;;;;;4889933;28;45420;-87
2024/01/12 06:32:06;;;;;;;2.90;2.53;;;20.80;20.60;;;;;;4926916;28;45290;-86
2024/01/12 06:34:32;;;;;;;3.23;2.70;;;20.80;20.70;;;;;;4916482;28;45045;-86
2024/01/12 06:36:58;;;;;;;3.03;2.42;;;20.80;20.70;;;;;;4902372;28;45946;-86
2024/01/12 06:39:24;;;;;;;2.70;2.50;;;20.80;20.70;;;;;;4923391;28;44880;-86
2024/01/12 06:41:52;;;;;;;2.50;2.30;;;20.80;20.70;;;;;;4919510;28;45572;-87
2024/01/12 06:44:18;;;;;;;3.38;2.70;;;20.80;20.70;;;;;;4939784;28;45431;-85
2024/01/12 06:46:45;;;;;;;3.00;2.58;;;20.80;20.70;;;;;;4949481;28;45531;-86
2024/01/12 06:49:11;;;;;;;3.70;2.58;;;20.70;20.70;;;;;;4919545;28;45088;-86
2024/01/12 06:51:37;;;;;;;2.70;2.47;;;20.80;20.80;;;;;;4902284;28;45185;-86
2024/01/12 06:54:03;;;;;;;2.92;2.38;;;20.70;20.70;;;;;;4920078;28;45083;-86
2024/01/12 06:56:30;;;;;;;3.30;2.50;;;20.70;20.80;;;;;;4928128;28;46816;-86
2024/01/12 06:58:56;;;;;;;2.60;2.28;;;20.70;20.80;;;;;;4936893;28;45258;-86
2024/01/12 07:01:21;;;;;;;2.50;2.30;;;20.70;20.80;;;;;;4884119;28;45167;-87
2024/01/12 07:03:47;;;;;;;2.77;2.30;;;20.70;20.80;;;;;;4924760;28;45273;-85
2024/01/12 07:06:13;;;;;;;2.53;2.30;;;20.70;20.80;;;;;;4902024;28;46256;-85
2024/01/12 07:08:39;;;;;;;2.40;2.20;;;20.70;20.90;;;;;;4918212;28;44729;-86
2024/01/12 07:11:06;;;;;;;2.43;2.17;;;20.70;20.90;;;;;;4923354;28;45520;-86
2024/01/12 07:13:32;;;;;;;2.28;2.05;;;20.60;20.80;;;;;;4944581;28;45615;-86
2024/01/12 07:16:00;;;;;;;2.23;2.03;;;20.70;20.90;;;;;;4922913;28;46137;-86
2024/01/12 07:18:26;;;;;;;3.72;2.17;;;20.60;20.80;;;;;;4925017;28;45037;-86
2024/01/12 07:20:51;;;;;;;2.25;2.00;;;20.70;20.90;;;;;;4936532;28;45301;-87
2024/01/12 07:23:17;;;;;;;2.88;2.20;;;20.60;20.90;;;;;;4917642;28;45207;-86
2024/01/12 07:25:43;;;;;;;2.20;2.00;;;20.60;20.90;;;;;;4920123;28;45920;-87
2024/01/12 07:28:09;;;;;;;2.53;2.33;;;20.60;20.90;;;;;;4940447;28;45773;-86
2024/01/12 07:30:36;;;;;;;2.22;2.00;;;20.60;20.90;;;;;;4930671;28;45279;-86
2024/01/12 07:33:04;;;;;;;2.50;2.30;;;20.60;20.90;;;;;;4910366;28;45660;-86
2024/01/12 07:35:30;;;;;;;2.40;2.10;;;20.60;20.90;;;;;;4902518;28;45584;-86
2024/01/12 07:37:56;;;;;;;2.50;2.23;;;20.60;21.00;;;;;;4927348;28;45509;-86
2024/01/12 07:40:22;;;;;;;2.40;2.20;;;20.60;21.00;;;;;;4909031;28;45664;-86
2024/01/12 07:42:48;;;;;;;2.10;1.90;;;20.50;21.00;;;;;;4926266;28;44994;-86
2024/01/12 07:45:14;;;;;;;2.28;2.08;;;20.60;21.00;;;;;;4906948;28;46135;-86
2024/01/12 07:47:40;;;;;;;2.10;1.90;;;20.50;21.00;;;;;;4920731;28;45549;-86
2024/01/12 07:50:08;;;;;;;2.20;2.00;;;20.50;21.00;;;;;;4939464;28;45057;-86
2024/01/12 07:52:34;;;;;;;2.10;1.90;;;20.50;21.00;;;;;;4938353;28;45308;-85
2024/01/12 07:55:00;;;;;;;2.40;2.20;;;20.50;21.00;;;;;;4922554;28;46450;-86
2024/01/12 07:57:26;;;;;;;2.40;2.20;;;20.50;21.00;;;;;;4914947;28;44854;-86
2024/01/12 07:59:55;;;;;;;2.58;2.38;;;20.50;21.00;;;;;;4915391;28;45206;-86
2024/01/12 08:02:21;;;;;;;2.30;2.10;;;20.50;21.10;;;;;;4921518;28;45562;-85
2024/01/12 08:04:47;;;;;;;2.45;2.20;;;20.50;21.10;;;;;;4921436;28;46104;-86
2024/01/12 08:07:13;;;;;;;2.57;2.27;;;20.50;21.10;;;;;;4920182;28;45247;-85
2024/01/12 08:09:39;;;;;;;2.40;2.20;;;20.50;21.10;;;;;;4923966;28;45514;-85
2024/01/12 08:12:06;;;;;;;2.40;2.20;;;20.50;21.10;;;;;;4936717;28;45465;-86
2024/01/12 08:14:32;;;;;;;2.55;2.30;;;20.50;21.10;;;;;;4918238;28;46270;-86
2024/01/12 08:16:58;;;;;;;2.30;2.10;;;20.50;21.10;;;;;;4927876;28;45421;-85
2024/01/12 08:19:24;;;;;;;2.80;2.30;;;20.40;21.10;;;;;;4913391;28;45849;-86
2024/01/12 08:21:50;;;;;;;2.30;2.10;;;20.40;21.20;;;;;;4917355;28;45489;-87
2024/01/12 08:24:16;;;;;;;2.22;2.03;;;20.40;21.10;;;;;;4936935;28;46999;-86
2024/01/12 08:26:42;;;;;;;2.40;2.20;;;20.40;21.20;;;;;;4904655;28;45433;-85
2024/01/12 08:29:08;;;;;;;2.37;2.17;;;20.40;21.20;;;;;;4934206;28;45744;-85
2024/01/12 08:31:34;;;;;;;2.50;2.30;;;20.40;21.20;;;;;;4935231;28;45252;-86
2024/01/12 08:34:00;;;;;;;2.50;2.30;;;20.40;21.20;;;;;;4920725;28;46242;-85
2024/01/12 08:36:25;;;;;;;2.50;2.30;;;20.40;21.30;;;;;;4922508;28;45412;-86
2024/01/12 08:38:51;;;;;;;2.37;2.10;;;20.40;21.20;;;;;;4921547;28;45031;-86
2024/01/12 08:41:17;;;;;;;2.33;2.13;;;20.30;21.20;;;;;;4908672;28;45883;-86
2024/01/12 08:43:43;;;;;;;2.67;2.30;;;20.30;21.20;;;;;;4926440;28;46055;-85
2024/01/12 08:46:09;;;;;;;2.27;2.00;;;20.30;21.30;;;;;;4939102;28;45064;-85
2024/01/12 08:48:36;;;;;;;2.50;2.30;;;20.30;21.30;;;;;;4937251;28;45504;-86
2024/01/12 08:51:02;;;;;;;2.38;2.17;;;20.30;21.30;;;;;;4925239;28;45467;-87
2024/01/12 08:53:28;;;;;;;2.40;2.20;;;20.30;21.30;;;;;;4923697;28;45605;-86
2024/01/12 08:55:53;;;;;;;2.67;2.47;;;20.30;21.30;;;;;;4925101;28;45529;-86
2024/01/12 08:58:20;;;;;;;2.42;2.22;;;20.30;21.30;;;;;;4921077;28;45531;-86
2024/01/12 09:00:46;;;;;;;2.60;2.40;;;20.30;21.40;;;;;;4921336;28;45512;-86
2024/01/12 09:03:12;;;;;;;2.53;2.33;;;20.30;21.40;;;;;;4919767;28;45505;-86
2024/01/12 09:05:38;;;;;;;2.78;2.40;;;20.30;21.40;;;;;;4901574;28;45183;-86
2024/01/12 09:08:04;;;;;;;2.42;2.22;;;20.20;21.40;;;;;;4902926;28;45583;-86
2024/01/12 09:10:30;;;;;;;2.50;2.30;;;20.20;21.40;;;;;;4882052;28;45470;-87
2024/01/12 09:12:56;;;;;;;2.70;2.30;;;20.20;21.50;;;;;;4910786;28;45493;-86
2024/01/12 09:15:22;;;;;;;2.63;2.42;;;20.20;21.50;;;;;;4914243;28;45330;-88
2024/01/12 09:17:48;;;;;;;2.50;2.30;;;20.20;21.50;;;;;;4881156;28;45960;-86
2024/01/12 09:20:15;;;;;;;2.63;2.30;;;20.20;21.50;;;;;;4894550;28;45563;-86
2024/01/12 09:22:40;;;;;;;2.40;2.20;;;20.20;21.50;;;;;;4884585;28;46283;-86
2024/01/12 09:25:07;;;;;;;2.40;2.20;;;20.20;21.50;;;;;;4898083;28;45450;-86
2024/01/12 09:27:34;;;;;;;2.97;2.65;;;20.20;21.50;;;;;;4901859;28;44891;-86
2024/01/12 09:30:01;;;;;;;2.55;2.35;;;20.20;21.60;;;;;;4898270;28;45587;-86
2024/01/12 09:32:27;;;;;;;3.00;2.40;;;20.20;21.60;;;;;;4893564;28;45585;-86
2024/01/12 09:34:52;;;;;;;2.60;2.40;;;20.20;21.60;;;;;;4899097;28;45433;-85
2024/01/12 09:37:18;;;;;;;2.50;2.30;;;20.20;21.60;;;;;;4902174;28;45489;-86
2024/01/12 09:39:44;;;;;;;2.40;2.20;;;20.20;21.70;;;;;;4901195;28;45561;-84
2024/01/12 09:42:09;;;;;;;2.33;2.13;;;20.20;21.70;;;;;;4905450;28;46034;-87
2024/01/12 09:44:38;;;;;;;2.20;2.00;;;20.20;21.70;;;;;;4901876;28;45348;-87
2024/01/12 09:47:04;;;;;;;2.67;2.47;;;20.20;21.70;;;;;;4896893;28;44973;-86
2024/01/12 09:49:31;;;;;;;2.10;1.90;;;20.20;21.70;;;;;;4881635;28;45789;-86
2024/01/12 09:51:57;;;;;;;2.38;2.17;;;20.20;21.70;;;;;;4900298;28;46385;-87
2024/01/12 09:54:23;;;;;;;2.28;2.08;;;20.20;21.70;;;;;;4898938;28;45524;-86
2024/01/12 09:56:49;;;;;;;2.72;2.53;;;20.30;21.70;;;;;;4901351;28;45588;-86
2024/01/12 09:59:21;;;;;;;2.58;2.38;;;20.30;21.70;;;;;;4908914;28;45061;-86
2024/01/12 10:01:48;;;;;;;2.40;2.20;;;20.30;21.70;;;;;;4911041;28;45533;-86
2024/01/12 10:04:14;;;;;;;2.90;2.63;;;20.30;21.70;;;;;;4930034;28;45968;-86
2024/01/12 10:06:40;;;;;;;2.38;2.17;;;20.30;21.80;;;;;;4925401;28;44908;-85
2024/01/12 10:09:06;;;;;;;2.47;2.28;;;20.30;21.80;;;;;;4922354;28;44899;-85
2024/01/12 10:11:33;;;;;;;3.08;2.40;;;20.30;21.80;;;;;;4922027;28;46696;-86
2024/01/12 10:13:59;;;;;;;2.47;2.27;;;20.30;21.80;;;;;;4908067;28;45286;-86
2024/01/12 10:16:29;;;;;;;2.60;2.40;;;20.30;21.80;;;;;;4920104;28;45486;-86
2024/01/12 10:18:58;;;;;;;3.65;2.42;;;20.40;21.90;;;;;;4909458;28;45665;-87
2024/01/12 10:21:24;;;;;;;2.58;2.30;;;20.40;21.90;;;;;;4908589;28;46478;-86
2024/01/12 10:23:59;;;;;;;2.60;2.40;;;20.40;21.90;;;;;;4906507;28;45178;-87
2024/01/12 10:26:25;;;;;;;2.33;2.13;;;20.40;21.90;;;;;;4920299;28;45491;-86
2024/01/12 10:28:51;;;;;;;3.00;2.50;;;20.40;21.90;;;;;;4923351;28;45500;-86
2024/01/12 10:31:17;;;;;;;2.70;2.40;;;20.40;21.90;;;;;;4919413;28;45596;-85
2024/01/12 10:33:43;;;;;;;2.90;2.60;;;20.40;22.30;;;;;;4906236;28;45309;-86
2024/01/12 10:36:23;;;;;;;3.30;2.72;;;20.50;21.90;;;;;;4939406;28;45351;-89
2024/01/12 10:38:49;;;;;;;2.92;2.60;;;20.50;21.90;;;;;;4930030;28;46015;-86
2024/01/12 10:41:15;;;;;;;2.90;2.63;;;20.50;21.90;;;;;;4899489;28;46197;-85
2024/01/12 10:43:47;;;;;;;2.90;2.60;;;20.50;22.40;;;;;;4926935;28;45425;-86
2024/01/12 10:46:16;;;;;;;3.28;2.97;;;20.60;21.90;;;;;;4904882;28;45684;-85
2024/01/12 10:48:49;;;;;;;2.92;2.70;;;20.60;21.90;;;;;;4942160;28;45477;-86
2024/01/12 10:51:15;;;;;;;3.75;3.03;;;20.60;22.00;;;;;;4919190;28;46550;-86
2024/01/12 10:53:55;;;;;;;2.97;2.67;;;20.60;22.00;;;;;;4940170;28;45746;-86
2024/01/12 10:56:21;;;;;;;2.83;2.53;;;20.60;21.90;;;;;;4902077;28;45276;-87
2024/01/12 10:58:48;;;;;;;2.78;2.53;;;20.70;22.00;;;;;;4924039;28;45285;-86
2024/01/12 11:01:14;;;;;;;3.10;2.80;;;20.70;22.00;;;;;;4917953;28;45942;-86
2024/01/12 11:03:40;;;;;;;3.00;2.30;;;20.70;22.00;;;;;;4924814;28;45724;-85
2024/01/12 11:06:07;;;;;;;3.15;2.85;;;20.70;21.90;;;;;;4937831;28;45244;-87
2024/01/12 11:08:36;;;;;;;2.90;2.60;;;20.80;22.00;;;;;;4943381;28;45401;-87
2024/01/12 11:11:02;;;;;;;2.90;2.70;;;20.80;22.00;;;;;;4923034;28;47008;-86
2024/01/12 11:13:28;;;;;;;2.60;2.30;;;20.80;22.00;;;;;;4907986;28;45333;-86
2024/01/12 11:15:54;;;;;;;3.00;2.70;;;20.80;21.90;;;;;;4919523;28;44702;-86
2024/01/12 11:18:20;;;;;;;3.10;2.50;;;20.80;21.90;;;;;;4938970;28;45536;-86
2024/01/12 11:20:45;;;;;;;3.03;2.75;;;20.90;22.00;;;;;;4918813;28;45819;-85
2024/01/12 11:23:11;;;;;;;2.97;2.67;;;20.90;22.00;;;;;;4929998;28;44879;-86
2024/01/12 11:25:38;;;;;;;2.75;2.53;;;20.90;21.90;;;;;;4933485;28;45238;-85
2024/01/12 11:28:05;;;;;;;3.07;2.53;;;21.00;22.00;;;;;;4909589;28;45474;-85
2024/01/12 11:30:31;;;;;;;2.88;2.63;;;21.00;22.00;;;;;;4920616;28;46404;-85
2024/01/12 11:33:04;;;;;;;2.40;2.20;;;21.00;22.00;;;;;;4913056;28;45639;-85
2024/01/12 11:35:31;;;;;;;2.50;2.30;;;21.00;21.90;;;;;;4950943;28;45668;-86
2024/01/12 11:38:05;;;;;;;2.95;2.70;;;21.00;21.90;;;;;;4909875;28;45262;-85
2024/01/12 11:40:30;;;;;;;2.90;2.60;;;21.10;22.00;;;;;;4934592;28;46606;-86
2024/01/12 11:42:58;;;;;;;2.70;2.50;;;21.10;22.00;;;;;;4916022;28;46530;-86
2024/01/12 11:45:24;;;;;;;2.78;2.55;;;21.10;22.00;;;;;;4905405;28;45400;-86
2024/01/12 11:47:49;;;;;;;2.60;2.40;;;21.20;22.00;;;;;;4917302;28;45673;-86
2024/01/12 11:50:16;;;;;;;3.23;2.80;;;21.10;21.90;;;;;;4924305;28;47652;-86
2024/01/12 11:52:42;;;;;;;3.72;2.55;;;21.20;21.90;;;;;;4924384;28;45258;-86
2024/01/12 11:55:09;;;;;;;2.72;2.53;;;21.20;21.90;;;;;;4917554;28;45389;-86
2024/01/12 11:57:38;;;;;;;2.78;2.47;;;21.20;21.90;;;;;;4904282;28;45755;-86
2024/01/12 12:00:09;;;;;;;2.70;2.50;;;21.30;21.90;;;;;;4939439;28;45405;-86
2024/01/12 12:02:36;;;;;;;2.67;2.30;;;21.30;21.90;;;;;;4907658;28;44907;-86
2024/01/12 12:05:11;;;;;;;2.70;2.50;;;21.30;21.80;;;;;;4894178;28;45389;-86
2024/01/12 12:07:38;;;;;;;2.58;2.38;;;21.30;21.80;;;;;;4891944;28;45211;-86
2024/01/12 12:10:05;;;;;;;2.78;2.58;;;21.40;21.80;;;;;;4906273;28;47218;-86
2024/01/12 12:12:31;;;;;;;2.72;2.50;;;21.40;21.80;;;;;;4871393;28;45726;-86
2024/01/12 12:15:07;;;;;;;2.45;2.25;;;21.40;21.80;;;;;;4894500;28;45408;-86
2024/01/12 12:17:35;;;;;;;2.60;2.40;;;21.40;21.80;;;;;;4884903;28;45532;-86
2024/01/12 12:20:03;;;;;;;3.42;2.42;;;21.50;21.80;;;;;;4907243;28;45420;-86
2024/01/12 12:22:29;;;;;;;2.73;2.43;;;21.50;21.80;;;;;;4917872;28;44987;-86
2024/01/12 12:24:55;;;;;;;3.00;2.70;;;21.50;21.70;;;;;;4872365;28;45872;-86
2024/01/12 12:27:21;;;;;;;2.80;2.30;;;21.60;21.70;;;;;;4904434;28;45339;-87
2024/01/12 12:29:47;;;;;;;2.60;2.40;;;21.60;21.70;;;;;;4894647;28;45313;-86
2024/01/12 12:32:13;;;;;;;2.87;2.67;;;21.50;21.70;;;;;;4884611;28;45073;-86
2024/01/12 12:34:40;;;;;;;2.58;2.28;;;21.60;21.70;;;;;;4886109;28;44839;-86
2024/01/12 12:37:08;;;;;;;2.65;2.45;;;21.60;21.70;;;;;;4888816;28;46135;-86
2024/01/12 12:39:36;;;;;;;2.70;2.50;;;21.60;21.70;;;;;;4902111;28;45847;-86
2024/01/12 12:42:04;;;;;;;2.50;2.30;;;21.60;22.10;;;;;;4890148;28;45819;-86
2024/01/12 12:44:31;;;;;;;2.53;2.33;;;21.60;21.60;;;;;;4889656;28;44890;-86
2024/01/12 12:46:57;;;;;;;2.73;2.50;;;21.60;21.60;;;;;;4903845;28;45310;-86
2024/01/12 12:49:31;;;;;;;2.70;2.50;;;21.70;21.60;;;;;;4888369;28;46147;-85
2024/01/12 12:51:58;;;;;;;2.65;2.42;;;21.70;21.60;;;;;;4903494;28;45128;-86
2024/01/12 12:54:27;;;;;;;2.50;2.30;;;21.70;21.60;;;;;;4905063;28;44970;-86
2024/01/12 12:56:53;;;;;;;2.92;2.70;;;21.70;21.50;;;;;;4905093;28;44948;-86
2024/01/12 12:59:19;;;;;;;2.60;2.40;;;21.70;21.60;;;;;;4893784;28;45900;-86
2024/01/12 13:01:45;;;;;;;2.53;2.33;;;21.70;21.50;;;;;;4875180;28;45035;-86
2024/01/12 13:04:12;;;;;;;2.70;2.50;;;21.80;21.50;;;;;;4900593;28;45231;-85
2024/01/12 13:06:38;;;;;;;3.50;2.75;;;21.80;21.60;;;;;;4899225;28;45561;-85
2024/01/12 13:09:07;;;;;;;2.53;2.33;;;21.80;21.50;;;;;;4922057;28;45941;-85
2024/01/12 13:11:34;;;;;;;2.70;2.50;;;21.80;21.50;;;;;;4906328;28;45439;-85
2024/01/12 13:13:59;;;;;;;3.00;2.80;;;21.80;21.50;;;;;;4921509;28;45540;-86
2024/01/12 13:16:27;;;;;;;2.63;2.43;;;21.80;21.50;;;;;;4901854;28;45151;-86
2024/01/12 13:18:53;;;;;;;3.00;2.67;;;21.80;21.50;;;;;;4920303;28;46298;-85
2024/01/12 13:21:20;;;;;;;2.95;2.75;;;21.80;21.50;;;;;;4933376;28;45211;-85
2024/01/12 13:23:46;;;;;;;3.00;2.78;;;21.80;21.50;;;;;;4934249;28;45446;-85
2024/01/12 13:26:12;;;;;;;3.10;2.67;;;21.80;21.50;;;;;;4902820;28;45651;-85
2024/01/12 13:28:38;;;;;;;3.30;3.00;;;21.80;21.50;;;;;;4936701;28;45666;-85
2024/01/12 13:31:05;;;;;;;2.90;2.60;;;21.80;21.50;;;;;;4916041;28;45279;-85
2024/01/12 13:33:32;;;;;;;2.70;2.50;;;21.80;21.50;;;;;;4933973;28;45222;-84
2024/01/12 13:35:59;;;;;;;3.10;2.75;;;21.80;21.50;;;;;;4920650;28;44862;-86
2024/01/12 13:38:25;;;;;;;3.10;2.80;;;21.80;21.50;;;;;;4950553;28;45229;-86
2024/01/12 13:40:50;;;;;;;2.60;2.40;;;21.80;21.40;;;;;;4936067;28;44999;-85
2024/01/12 13:43:17;;;;;;;3.30;3.00;;;21.80;21.40;;;;;;4890626;28;45712;-84
2024/01/12 13:45:42;;;;;;;3.17;2.88;;;21.80;21.40;;;;;;4918485;28;45523;-85
2024/01/12 13:48:11;;;;;;;3.47;3.17;;;21.80;21.50;;;;;;4921951;28;45758;-84
2024/01/12 13:50:37;;;;;;;2.95;2.70;;;21.80;21.40;;;;;;4932480;28;45212;-85
2024/01/12 13:53:04;;;;;;;3.05;2.75;;;21.80;21.40;;;;;;4923979;28;45209;-85
2024/01/12 13:55:29;;;;;;;3.33;3.03;;;21.80;21.50;;;;;;4931921;28;45236;-85
2024/01/12 13:57:55;;;;;;;3.13;2.83;;;21.80;21.40;;;;;;4943137;28;45167;-86
2024/01/12 14:00:21;;;;;;;3.10;2.80;;;21.80;21.40;;;;;;4923895;28;45797;-85
2024/01/12 14:02:48;;;;;;;3.17;2.88;;;21.80;21.40;;;;;;4921888;28;45648;-84
2024/01/12 14:05:16;;;;;;;2.92;2.72;;;21.80;21.50;;;;;;4936049;28;45178;-84
2024/01/12 14:07:42;;;;;;;2.93;2.70;;;21.80;21.40;;;;;;4936805;28;45612;-86
2024/01/12 14:10:08;;;;;;;3.20;2.90;;;21.80;21.40;;;;;;4920827;28;45004;-85
2024/01/12 14:12:34;;;;;;;3.03;2.78;;;21.80;21.40;;;;;;4919955;28;45237;-84
2024/01/12 14:15:01;;;;;;;3.95;2.97;;;21.80;21.40;;;;;;4957601;28;45372;-85
2024/01/12 14:17:26;;;;;;;3.50;3.20;;;21.80;21.40;;;;;;4913108;28;46339;-85
2024/01/12 14:19:52;;;;;;;3.37;3.07;;;21.80;21.40;;;;;;4902492;28;45033;-86
2024/01/12 14:22:19;;;;;;;3.30;3.00;;;21.80;21.50;;;;;;4903022;28;45299;-85
2024/01/12 14:24:48;;;;;;;3.30;3.00;;;21.80;21.50;;;;;;4904525;28;44931;-83
2024/01/12 14:27:13;;;;;;;3.45;3.15;;;21.80;21.50;;;;;;4900323;28;46344;-84
2024/01/12 14:29:40;;;;;;;3.60;2.97;;;21.80;21.50;;;;;;4900440;28;45258;-85
2024/01/12 14:32:06;;;;;;;3.30;3.00;;;21.80;21.50;;;;;;4915664;28;45257;-84
2024/01/12 14:34:31;;;;;;;3.13;2.83;;;21.80;21.50;;;;;;4949961;28;45145;-84
2024/01/12 14:36:57;;;;;;;3.13;2.83;;;21.80;21.50;;;;;;4924797;28;46063;-85
2024/01/12 14:39:23;;;;;;;3.03;2.80;;;21.80;21.50;;;;;;4911720;28;45835;-85
2024/01/12 14:41:49;;;;;;;2.80;2.60;;;21.80;21.50;;;;;;4916460;28;45451;-85
2024/01/12 14:44:33;;;;;;;3.30;3.00;;;21.80;21.50;;;;;;4923417;28;45492;-85
2024/01/12 14:47:09;;;;;;;3.38;3.08;;;21.80;21.50;;;;;;4922095;28;46417;-85
2024/01/12 14:49:38;;;;;;;4.10;3.40;;;21.80;21.50;;;;;;4937005;28;45320;-85
2024/01/12 14:52:04;;;;;;;3.42;3.13;;;21.80;21.50;;;;;;4928062;28;45317;-84
2024/01/12 14:54:30;;;;;;;3.20;2.90;;;21.80;21.50;;;;;;4917363;28;45010;-84
2024/01/12 14:56:57;;;;;;;3.23;2.93;;;21.80;21.50;;;;;;4887015;28;47111;-84
2024/01/12 14:59:22;;;;;;;3.67;3.37;;;21.80;21.50;;;;;;4910613;28;45428;-83
2024/01/12 15:01:48;;;;;;;3.50;3.20;;;21.80;21.50;;;;;;4918197;28;45822;-85
2024/01/12 15:04:15;;;;;;;4.30;3.13;;;21.80;21.50;;;;;;4897396;28;46060;-85
2024/01/12 15:07:03;;;;;;;3.22;2.95;;;21.80;21.50;;;;;;4886707;28;46400;-85
2024/01/12 15:09:29;;;;;;;3.67;3.35;;;21.80;21.50;;;;;;4916211;28;44975;-85
2024/01/12 15:11:55;;;;;;;3.40;3.10;;;21.80;21.50;;;;;;4913772;28;45410;-86
2024/01/12 15:14:20;;;;;;;3.50;3.20;;;21.80;21.50;;;;;;4885030;28;45936;-84
2024/01/12 15:16:47;;;;;;;3.40;3.10;;;21.80;21.50;;;;;;4916733;28;46270;-84
2024/01/12 15:19:15;;;;;;;3.58;3.28;;;21.80;21.50;;;;;;4927239;28;45259;-84
2024/01/12 15:21:41;;;;;;;3.45;3.15;;;21.80;21.50;;;;;;4949233;28;45457;-84
2024/01/12 15:24:07;;;;;;;3.22;2.92;;;21.80;21.60;;;;;;4920991;28;45414;-86
2024/01/12 15:26:36;;;;;;;3.45;3.15;;;21.80;21.50;;;;;;4934284;28;46706;-85
2024/01/12 15:29:02;;;;;;;3.70;3.40;;;21.80;21.50;;;;;;4894180;28;45185;-85
2024/01/12 15:31:28;;;;;;;3.65;3.20;;;21.80;21.50;;;;;;4914298;28;45235;-84
2024/01/12 15:33:55;;;;;;;3.33;3.03;;;21.80;21.50;;;;;;4939999;28;45308;-84
2024/01/12 15:36:21;;;;;;;3.40;3.10;;;21.80;21.60;;;;;;4935564;28;45452;-85
2024/01/12 15:38:48;;;;;;;3.30;3.00;;;21.80;21.50;;;;;;4937995;28;45365;-84
2024/01/12 15:41:13;;;;;;;3.65;3.28;;;21.80;21.50;;;;;;4932625;28;45085;-86
2024/01/12 15:43:39;;;;;;;3.30;3.00;;;21.80;21.60;;;;;;4936427;28;45174;-85
2024/01/12 15:46:05;;;;;;;3.78;3.00;;;21.70;21.60;;;;;;4899203;28;45899;-85
2024/01/12 15:48:31;;;;;;;3.10;2.80;;;21.70;21.50;;;;;;4917512;28;44920;-85
2024/01/12 15:50:57;;;;;;;3.42;3.13;;;21.70;21.50;;;;;;4917811;28;45510;-85
2024/01/12 15:53:23;;;;;;;3.40;3.10;;;21.70;21.50;;;;;;4913755;28;46357;-85
2024/01/12 15:55:49;;;;;;;3.80;3.40;;;21.70;21.50;;;;;;4943145;28;46394;-85
2024/01/12 15:58:15;;;;;;;3.10;2.85;;;21.70;21.50;;;;;;4936484;28;44723;-87
2024/01/12 16:00:41;;;;;;;3.38;3.08;;;21.70;21.60;;;;;;4935523;28;45411;-85
2024/01/12 16:03:06;;;;;;;3.67;2.88;;;21.70;21.60;;;;;;4929333;28;45102;-84
2024/01/12 16:05:33;;;;;;;3.50;3.20;;;21.70;21.60;;;;;;4942544;28;46323;-85
2024/01/12 16:08:02;;;;;;;3.33;3.03;;;21.70;21.60;;;;;;4938959;28;45589;-85
2024/01/12 16:10:28;;;;;;;3.33;3.03;;;21.70;21.60;;;;;;4918495;28;45170;-85
2024/01/12 16:12:57;;;;;;;3.40;3.10;;;21.70;21.60;;;;;;4923910;28;44939;-84
2024/01/12 16:15:25;;;;;;;3.70;3.30;;;21.70;21.60;;;;;;4943906;28;45191;-85
2024/01/12 16:17:51;;;;;;;3.33;3.03;;;21.70;21.60;;;;;;4897584;28;45056;-84
2024/01/12 16:20:16;;;;;;;3.42;3.05;;;21.70;21.60;;;;;;4918484;28;45588;-85
2024/01/12 16:22:42;;;;;;;3.90;3.22;;;21.70;21.60;;;;;;4927911;28;45187;-83
2024/01/12 16:25:09;;;;;;;3.92;3.63;;;21.70;21.70;;;;;;4926520;28;46392;-84
2024/01/12 16:27:35;;;;;;;4.20;3.70;;;21.70;21.60;;;;;;4932267;28;44993;-84
2024/01/12 16:30:04;;;;;;;4.22;3.75;;;21.70;21.70;;;;;;4941511;28;46257;-84
2024/01/12 16:32:30;;;;;;;5.25;4.05;;;21.70;21.70;;;;;;4946443;28;45082;-85
2024/01/12 16:34:56;;;;;;;4.13;3.72;;;21.70;21.70;;;;;;4913732;28;45802;-84
2024/01/12 16:37:22;;;;;;;4.97;3.63;;;21.70;21.70;;;;;;4887208;28;45599;-85
2024/01/12 16:39:48;;;;;;;4.15;3.75;;;21.70;21.70;;;;;;4918850;28;45477;-85
2024/01/12 16:42:14;;;;;;;3.95;3.60;;;21.70;21.70;;;;;;4924246;28;44855;-85
2024/01/12 16:44:41;;;;;;;3.80;3.50;;;21.70;21.70;;;;;;4913283;28;46205;-85